This is the latest recevied weather packets stored in our database for station/object WMKM. If no packets are shown the sender has not sent any weather packets the latest 1 day(s).
| Time | Temp. | Humidity | Pressure | Rain* | Wind** | Luminosity | Snow |
|---|---|---|---|---|---|---|---|
| 1836274302 | 31.67° C | 66% | 1012 hPa | - | 2.24 m/s, 120° | - | - |
| 1778047848 | 30.56° C | 74% | 1007 hPa | - | 1.79 m/s, 170° | - | - |
| 1778044248 | 30° C | 74% | 1008 hPa | - | 0.89 m/s, 0° | - | - |
| 1778040648 | 27.78° C | 88% | 1009 hPa | - | 0.89 m/s, 0° | - | - |
| 1778037060 | 30° C | 74% | 1010 hPa | - | 0.89 m/s, 0° | - | - |
| 1778033446 | 28.89° C | 79% | 1010 hPa | - | 0.89 m/s, 0° | - | - |
| 1778029849 | 27.78° C | 83% | 1009 hPa | - | 0 m/s | - | - |
| 1778026248 | 26.67° C | 88% | 1009 hPa | - | 0 m/s | - | - |
| 1778022646 | 25.56° C | 94% | 1008 hPa | - | 0.45 m/s, 0° | - | - |
| 1778019064 | 25.56° C | 94% | 1007 hPa | - | 0 m/s | - | - |
| 1778015448 | 25.56° C | 94% | 1007 hPa | - | 0 m/s | - | - |
| 1778011847 | 25.56° C | 94% | 1008 hPa | - | 0.89 m/s, 0° | - | - |
| 1778008246 | 25.56° C | 94% | 1008 hPa | - | 0 m/s | - | - |
| 1778004664 | 26.67° C | 88% | 1008 hPa | - | 0.89 m/s, 0° | - | - |
| 1778001046 | 26.67° C | 88% | 1009 hPa | - | 0.89 m/s, 0° | - | - |
| 1777997448 | 26.67° C | 88% | 1009 hPa | - | 0 m/s | - | - |
| 1777995046 | 26.67° C | 88% | 1009 hPa | - | 0 m/s | - | - |
| 1777994462 | 25° C | 94% | 1010.6 hPa | - | 1.79 m/s, 59° | - | - |
| 1777993846 | 26.67° C | 88% | 1009 hPa | - | 0 m/s | - | - |
| 1777990248 | 27.78° C | 83% | 1008 hPa | - | 0 m/s | - | - |
| 1777986663 | 27.78° C | 83% | 1007 hPa | - | 0 m/s | - | - |
| 1777983047 | 28.89° C | 79% | 1007 hPa | - | 0 m/s | - | - |
| 1777979448 | 30° C | 70% | 1006 hPa | - | 1.34 m/s, 290° | - | - |
| 1777975848 | 30° C | 70% | 1006 hPa | - | 1.79 m/s, 230° | - | - |
| 1777972259 | 30° C | 70% | 1006 hPa | - | 2.24 m/s, 270° | - | - |
* Rain since midnight (hover to see other rain measurements)
** Current wind speed in m/s (hover to see current wind gust speed)